createdAt,value
2022-11-29T00:01:31.818Z,8.13
2022-11-29T00:04:35.802Z,8.36
2022-11-29T00:07:39.559Z,8.58
2022-11-29T00:10:43.216Z,8.40
2022-11-29T00:13:46.887Z,8.61
2022-11-29T00:16:57.079Z,8.62
2022-11-29T00:20:00.745Z,8.67
2022-11-29T00:23:04.563Z,8.46
2022-11-29T00:26:10.366Z,8.56
2022-11-29T00:29:14.786Z,8.37
2022-11-29T00:32:19.926Z,8.59
2022-11-29T00:35:23.763Z,8.70
2022-11-29T00:38:29.536Z,8.58
2022-11-29T00:41:33.392Z,8.65
2022-11-29T00:44:37.066Z,8.50
2022-11-29T00:47:42.356Z,8.59
2022-11-29T00:50:46.106Z,8.64
2022-11-29T00:53:49.866Z,8.71
2022-11-29T00:56:53.526Z,8.73
2022-11-29T00:59:57.293Z,8.62
2022-11-29T01:03:03.817Z,8.68
2022-11-29T01:06:09.659Z,8.74
2022-11-29T01:09:13.363Z,8.51
2022-11-29T01:12:16.967Z,8.66
2022-11-29T01:15:20.606Z,8.72
2022-11-29T01:18:26.216Z,8.67
2022-11-29T01:21:30.365Z,8.57
2022-11-29T01:24:34.053Z,8.62
2022-11-29T01:27:37.878Z,8.68
2022-11-29T01:30:41.520Z,8.67
2022-11-29T01:33:46.831Z,8.53
2022-11-29T01:36:50.353Z,8.54
2022-11-29T01:39:53.920Z,8.55
2022-11-29T01:42:57.497Z,8.62
2022-11-29T01:46:01.058Z,8.44
2022-11-29T01:49:11.113Z,8.46
2022-11-29T01:52:18.359Z,8.52
2022-11-29T01:55:22.381Z,8.26
2022-11-29T01:58:26.381Z,8.43
2022-11-29T02:01:30.278Z,8.37
2022-11-29T02:04:37.294Z,8.40
2022-11-29T02:07:41.574Z,8.48
2022-11-29T02:11:03.266Z,8.61
2022-11-29T02:14:21.792Z,8.64
2022-11-29T02:17:36.770Z,8.71
2022-11-29T02:21:24.527Z,8.50
2022-11-29T02:24:58.030Z,8.65
2022-11-29T02:28:30.390Z,8.58
2022-11-29T02:32:00.322Z,8.47
2022-11-29T02:35:21.239Z,8.37
2022-11-29T02:38:37.321Z,8.41
2022-11-29T02:42:05.453Z,8.08
2022-11-29T02:45:17.697Z,8.26
2022-11-29T02:48:43.965Z,8.05
2022-11-29T02:51:58.232Z,8.11
2022-11-29T02:55:10.801Z,7.92
2022-11-29T02:58:25.077Z,7.87
2022-11-29T03:01:35.232Z,7.74
2022-11-29T03:04:47.003Z,7.80
2022-11-29T03:08:00.623Z,7.71
2022-11-29T03:11:14.509Z,7.63
2022-11-29T03:14:25.776Z,7.70
2022-11-29T03:17:38.053Z,7.72
2022-11-29T03:20:56.806Z,7.67
2022-11-29T03:24:11.004Z,7.67
2022-11-29T03:27:22.332Z,7.69
2022-11-29T03:30:26.098Z,7.78
2022-11-29T03:33:39.408Z,7.81
2022-11-29T03:36:51.342Z,7.95
2022-11-29T03:40:03.893Z,7.84
2022-11-29T03:43:12.273Z,7.92
2022-11-29T03:46:25.252Z,8.08
2022-11-29T03:49:34.511Z,8.19
2022-11-29T03:52:48.948Z,8.22
2022-11-29T03:55:58.356Z,8.35
2022-11-29T03:59:13.549Z,8.23
2022-11-29T04:02:50.808Z,8.30
2022-11-29T04:06:09.649Z,8.16
2022-11-29T04:09:43.952Z,7.77
2022-11-29T04:13:30.039Z,7.97
2022-11-29T04:17:17.828Z,8.12
2022-11-29T04:21:07.911Z,8.11
2022-11-29T04:25:05.163Z,8.27
2022-11-29T04:28:27.244Z,8.32
2022-11-29T04:31:46.426Z,8.13
2022-11-29T04:35:27.004Z,8.28
2022-11-29T04:39:01.701Z,7.86
2022-11-29T04:42:30.416Z,8.11
2022-11-29T04:45:58.183Z,8.18
2022-11-29T04:49:23.760Z,8.09
2022-11-29T04:52:47.434Z,7.98
2022-11-29T04:55:58.675Z,8.30
2022-11-29T04:59:08.976Z,8.15
2022-11-29T05:02:30.514Z,8.01
2022-11-29T05:05:42.097Z,8.18
2022-11-29T05:08:52.636Z,8.19
2022-11-29T05:12:10.521Z,8.27
2022-11-29T05:15:43.029Z,8.08
2022-11-29T05:19:07.144Z,8.15
2022-11-29T05:22:32.647Z,8.19
2022-11-29T05:25:43.411Z,8.10
2022-11-29T05:28:56.511Z,8.09
2022-11-29T05:32:16.141Z,8.22
2022-11-29T05:35:42.204Z,8.28
2022-11-29T05:38:57.629Z,8.25
2022-11-29T05:42:37.269Z,8.09
2022-11-29T05:45:49.590Z,8.40
2022-11-29T05:49:03.780Z,8.38
2022-11-29T05:52:27.092Z,8.26
2022-11-29T05:55:45.496Z,8.23
2022-11-29T05:58:52.440Z,8.25
2022-11-29T06:02:06.543Z,8.24
2022-11-29T06:05:18.320Z,8.33
2022-11-29T06:08:34.269Z,8.34
2022-11-29T06:11:43.714Z,8.33
2022-11-29T06:15:03.081Z,8.24
2022-11-29T06:18:37.030Z,8.18
2022-11-29T06:21:47.638Z,8.24
2022-11-29T06:25:04.861Z,7.92
2022-11-29T06:28:34.633Z,8.08
2022-11-29T06:31:44.711Z,8.09
2022-11-29T06:34:55.993Z,8.29
2022-11-29T06:38:03.306Z,8.14
2022-11-29T06:41:14.934Z,8.31
2022-11-29T06:44:19.486Z,8.48
2022-11-29T06:47:29.924Z,8.64
2022-11-29T06:50:47.999Z,8.63
2022-11-29T06:54:00.190Z,8.70
2022-11-29T06:57:13.613Z,8.61
2022-11-29T07:00:22.363Z,8.40
2022-11-29T07:03:44.415Z,8.36
2022-11-29T07:06:48.906Z,8.39
2022-11-29T07:09:57.150Z,8.29
2022-11-29T07:13:03.067Z,8.16
2022-11-29T07:16:17.683Z,8.08
2022-11-29T07:19:32.853Z,8.00
2022-11-29T07:22:52.343Z,8.34
2022-11-29T07:26:08.929Z,8.08
2022-11-29T07:29:27.694Z,8.40
2022-11-29T07:32:48.839Z,8.51
2022-11-29T07:36:05.490Z,8.47
2022-11-29T07:39:23.430Z,8.52
2022-11-29T07:42:33.322Z,8.62
2022-11-29T07:45:38.610Z,8.72
2022-11-29T07:48:42.269Z,8.50
2022-11-29T07:51:46.421Z,8.78
2022-11-29T07:54:50.316Z,8.47
2022-11-29T07:57:54.715Z,8.60
2022-11-29T08:00:59.873Z,8.51
2022-11-29T08:04:03.743Z,8.48
2022-11-29T08:07:09.242Z,8.56
2022-11-29T08:10:15.821Z,8.70
2022-11-29T08:13:20.843Z,8.79
2022-11-29T08:16:26.446Z,8.81
2022-11-29T08:19:30.161Z,8.57
2022-11-29T08:22:33.894Z,8.79
2022-11-29T08:25:37.787Z,8.66
2022-11-29T08:28:41.651Z,8.70
2022-11-29T08:31:46.896Z,9.00
2022-11-29T08:34:50.640Z,8.97
2022-11-29T08:37:56.231Z,9.05
2022-11-29T08:41:02.624Z,8.90
2022-11-29T08:44:06.760Z,9.18
2022-11-29T08:47:29.969Z,9.14
2022-11-29T08:50:33.564Z,9.10
2022-11-29T08:53:43.071Z,9.14
2022-11-29T08:57:31.119Z,9.06
2022-11-29T09:00:12.594Z,9.34
2022-11-29T09:03:35.134Z,9.39
2022-11-29T09:06:40.712Z,9.34
2022-11-29T09:09:44.644Z,9.38
2022-11-29T09:12:49.808Z,9.53
2022-11-29T09:15:53.498Z,9.45
2022-11-29T09:18:58.594Z,9.54
2022-11-29T09:22:03.154Z,9.56
2022-11-29T09:25:07.951Z,9.59
2022-11-29T09:28:12.883Z,9.57
2022-11-29T09:31:18.313Z,9.63
2022-11-29T09:34:23.496Z,9.68
2022-11-29T09:37:27.293Z,9.39
2022-11-29T09:40:39.242Z,9.73
2022-11-29T09:43:50.984Z,9.73
2022-11-29T09:47:02.328Z,9.52
2022-11-29T09:50:22.740Z,9.82
2022-11-29T09:53:46.263Z,9.90
2022-11-29T09:56:53.102Z,10.06
2022-11-29T09:59:59.780Z,10.05
2022-11-29T10:03:11.654Z,10.00
2022-11-29T10:06:24.771Z,10.02
2022-11-29T10:09:34.088Z,10.08
2022-11-29T10:12:42.780Z,10.09
2022-11-29T10:15:49.090Z,9.75
2022-11-29T10:19:01.522Z,9.83
2022-11-29T10:22:15.430Z,10.01
2022-11-29T10:25:26.220Z,10.03
2022-11-29T10:28:32.680Z,9.93
2022-11-29T10:31:40.374Z,10.01
2022-11-29T10:34:45.433Z,10.09
2022-11-29T10:38:28.691Z,10.18
2022-11-29T10:41:23.230Z,10.22
2022-11-29T10:44:27.352Z,10.30
2022-11-29T10:47:31.380Z,10.17
2022-11-29T10:50:37.164Z,10.22
2022-11-29T10:53:42.413Z,10.24
2022-11-29T10:56:47.134Z,9.92
2022-11-29T11:00:01.788Z,9.79
2022-11-29T11:03:18.613Z,9.72
2022-11-29T11:06:24.175Z,9.92
2022-11-29T11:09:34.447Z,9.97
2022-11-29T11:12:38.355Z,10.00
2022-11-29T11:15:42.004Z,9.89
2022-11-29T11:18:46.640Z,10.08
2022-11-29T11:21:50.601Z,10.19
2022-11-29T11:25:01.514Z,10.19
2022-11-29T11:28:18.257Z,10.21
2022-11-29T11:31:34.530Z,10.04
2022-11-29T11:34:39.899Z,10.26
2022-11-29T11:37:43.655Z,10.09
2022-11-29T11:40:52.464Z,10.06
2022-11-29T11:44:04.539Z,9.91
2022-11-29T11:47:16.990Z,9.99
2022-11-29T11:50:29.544Z,9.91
2022-11-29T11:53:36.821Z,9.87
2022-11-29T11:56:42.404Z,10.08
2022-11-29T11:59:49.771Z,10.09
2022-11-29T12:02:53.621Z,10.16
2022-11-29T12:06:00.804Z,10.01
2022-11-29T12:09:11.271Z,10.06
2022-11-29T12:12:21.190Z,10.01
2022-11-29T12:15:29.745Z,10.11
2022-11-29T12:18:40.604Z,9.86
2022-11-29T12:21:48.895Z,9.99
2022-11-29T12:24:59.363Z,9.84
2022-11-29T12:28:05.665Z,9.92
2022-11-29T12:31:33.963Z,9.90
2022-11-29T12:34:50.255Z,9.83
2022-11-29T12:38:04.273Z,9.94
2022-11-29T12:41:22.780Z,9.90
2022-11-29T12:44:38.033Z,9.86
2022-11-29T12:47:52.513Z,9.85
2022-11-29T12:51:03.905Z,9.84
2022-11-29T12:54:29.302Z,9.85
2022-11-29T12:57:40.514Z,9.88
2022-11-29T13:00:56.312Z,9.82
2022-11-29T13:04:10.755Z,9.73
2022-11-29T13:07:26.888Z,9.76
2022-11-29T13:10:44.755Z,9.78
2022-11-29T13:13:53.172Z,9.81
2022-11-29T13:17:01.718Z,9.81
2022-11-29T13:20:21.289Z,9.79
2022-11-29T13:23:45.788Z,9.33
2022-11-29T13:26:56.726Z,9.73
2022-11-29T13:30:02.056Z,9.76
2022-11-29T13:33:18.148Z,9.91
2022-11-29T13:36:27.615Z,9.74
2022-11-29T13:39:43.215Z,9.75
2022-11-29T13:42:55.431Z,9.58
2022-11-29T13:46:10.746Z,8.91
2022-11-29T13:49:24.225Z,9.49
2022-11-29T13:52:40.014Z,9.40
2022-11-29T13:55:49.750Z,9.48
2022-11-29T13:58:55.204Z,9.65
2022-11-29T14:01:59.507Z,9.52
2022-11-29T14:05:08.131Z,9.57
2022-11-29T14:08:42.214Z,9.64
2022-11-29T14:12:01.204Z,9.55
2022-11-29T14:15:21.542Z,9.61
2022-11-29T14:18:50.655Z,9.67
2022-11-29T14:22:33.561Z,9.72
2022-11-29T14:25:51.561Z,9.68
2022-11-29T14:28:55.956Z,9.60
2022-11-29T14:32:01.325Z,9.34
2022-11-29T14:35:15.142Z,9.39
2022-11-29T14:38:31.079Z,9.39
2022-11-29T14:41:54.943Z,9.21
2022-11-29T14:45:01.672Z,9.36
2022-11-29T14:48:05.584Z,9.40
2022-11-29T14:51:11.270Z,9.44
2022-11-29T14:54:18.563Z,9.48
2022-11-29T14:58:06.420Z,9.38
2022-11-29T15:01:11.410Z,9.46
2022-11-29T15:04:15.670Z,9.46
2022-11-29T15:07:25.301Z,9.48
2022-11-29T15:10:35.085Z,9.51
2022-11-29T15:13:49.362Z,9.39
2022-11-29T15:17:11.901Z,9.53
2022-11-29T15:20:39.497Z,9.60
2022-11-29T15:23:44.742Z,9.67
2022-11-29T15:27:06.350Z,9.52
2022-11-29T15:30:23.370Z,9.62
2022-11-29T15:33:27.406Z,9.54
2022-11-29T15:36:31.411Z,9.49
2022-11-29T15:39:37.177Z,9.61
2022-11-29T15:42:43.365Z,9.57
2022-11-29T15:45:54.324Z,9.07
2022-11-29T15:49:16.420Z,9.05
2022-11-29T15:52:26.971Z,9.13
2022-11-29T15:55:32.057Z,9.19
2022-11-29T15:58:36.083Z,9.30
2022-11-29T16:01:44.466Z,9.38
2022-11-29T16:04:50.523Z,9.36
2022-11-29T16:07:57.876Z,9.41
2022-11-29T16:11:02.403Z,9.44
2022-11-29T16:14:17.081Z,9.51
2022-11-29T16:17:22.354Z,9.51
2022-11-29T16:20:27.640Z,9.50
2022-11-29T16:23:36.108Z,9.21
2022-11-29T16:26:43.178Z,9.40
2022-11-29T16:29:48.533Z,9.36
2022-11-29T16:32:59.133Z,9.45
2022-11-29T16:36:08.410Z,9.35
2022-11-29T16:39:23.348Z,9.34
2022-11-29T16:42:29.044Z,8.75
2022-11-29T16:45:34.750Z,8.98
2022-11-29T16:48:40.002Z,8.95
2022-11-29T16:51:48.483Z,8.97
2022-11-29T16:54:52.577Z,8.89
2022-11-29T16:57:56.290Z,9.04
2022-11-29T17:01:00.118Z,9.20
2022-11-29T17:04:05.542Z,9.05
2022-11-29T17:07:14.260Z,9.28
2022-11-29T17:10:21.084Z,9.35
2022-11-29T17:13:24.776Z,9.15
2022-11-29T17:16:28.391Z,9.11
2022-11-29T17:19:33.613Z,9.25
2022-11-29T17:22:37.243Z,9.24
2022-11-29T17:25:41.101Z,9.25
2022-11-29T17:28:46.039Z,9.23
2022-11-29T17:31:50.881Z,9.31
2022-11-29T17:34:56.183Z,9.40
2022-11-29T17:38:00.774Z,9.35
2022-11-29T17:41:08.784Z,9.34
2022-11-29T17:44:12.523Z,9.47
2022-11-29T17:47:16.501Z,9.47
2022-11-29T17:50:21.614Z,9.52
2022-11-29T17:53:25.286Z,9.49
2022-11-29T17:56:30.090Z,9.45
2022-11-29T17:59:33.802Z,9.56
2022-11-29T18:02:37.576Z,9.49
2022-11-29T18:05:42.754Z,9.49
2022-11-29T18:08:48.503Z,9.57
2022-11-29T18:11:52.749Z,9.48
2022-11-29T18:14:56.462Z,9.61
2022-11-29T18:18:00.145Z,9.54
2022-11-29T18:21:07.377Z,9.57
2022-11-29T18:24:11.755Z,9.36
2022-11-29T18:27:15.490Z,9.47
2022-11-29T18:30:19.449Z,9.33
2022-11-29T18:33:23.490Z,9.42
2022-11-29T18:36:30.196Z,9.36
2022-11-29T18:39:33.970Z,9.32
2022-11-29T18:42:37.614Z,9.38
2022-11-29T18:45:41.507Z,9.03
2022-11-29T18:48:47.483Z,9.26
2022-11-29T18:51:52.799Z,9.24
2022-11-29T18:54:56.582Z,9.08
2022-11-29T18:58:00.224Z,9.27
2022-11-29T19:01:05.994Z,9.31
2022-11-29T19:04:11.594Z,9.16
2022-11-29T19:07:16.927Z,9.23
2022-11-29T19:10:20.611Z,9.24
2022-11-29T19:13:24.376Z,9.27
2022-11-29T19:16:29.873Z,9.30
2022-11-29T19:19:33.611Z,9.36
2022-11-29T19:22:38.651Z,9.37
2022-11-29T19:25:42.456Z,9.23
2022-11-29T19:28:47.333Z,9.42
2022-11-29T19:31:51.704Z,9.46
2022-11-29T19:34:55.401Z,9.47
2022-11-29T19:38:00.555Z,9.47
2022-11-29T19:41:09.969Z,9.51
2022-11-29T19:44:13.995Z,9.51
2022-11-29T19:47:18.028Z,9.53
2022-11-29T19:50:21.794Z,9.48
2022-11-29T19:53:26.915Z,9.50
2022-11-29T19:56:31.594Z,9.22
2022-11-29T19:59:35.381Z,9.30
2022-11-29T20:02:39.343Z,9.29
2022-11-29T20:05:44.333Z,9.37
2022-11-29T20:08:49.615Z,9.21
2022-11-29T20:11:53.196Z,9.27
2022-11-29T20:14:56.876Z,9.27
2022-11-29T20:18:02.540Z,9.27
2022-11-29T20:21:07.335Z,9.04
2022-11-29T20:24:14.651Z,9.05
2022-11-29T20:27:18.544Z,9.06
2022-11-29T20:30:22.497Z,9.09
2022-11-29T20:33:27.264Z,9.16
2022-11-29T20:36:43.323Z,9.09
2022-11-29T20:39:55.564Z,9.14
2022-11-29T20:43:08.056Z,9.25
2022-11-29T20:46:12.485Z,9.22
2022-11-29T20:49:17.577Z,9.24
2022-11-29T20:52:33.616Z,9.10
2022-11-29T20:55:44.831Z,9.20
2022-11-29T20:58:51.776Z,8.87
2022-11-29T21:01:56.302Z,9.20
2022-11-29T21:05:00.088Z,9.29
2022-11-29T21:08:03.867Z,9.23
2022-11-29T21:11:10.857Z,9.29
2022-11-29T21:14:15.363Z,9.43
2022-11-29T21:17:19.764Z,9.36
2022-11-29T21:20:26.428Z,9.38
2022-11-29T21:23:39.663Z,9.46
2022-11-29T21:26:51.249Z,9.45
2022-11-29T21:29:55.823Z,9.50
2022-11-29T21:33:00.045Z,9.35
2022-11-29T21:36:05.891Z,9.32
2022-11-29T21:39:13.183Z,9.30
2022-11-29T21:42:18.220Z,9.41
2022-11-29T21:45:21.896Z,9.43
2022-11-29T21:48:38.103Z,9.36
2022-11-29T21:51:41.919Z,9.24
2022-11-29T21:54:45.686Z,9.44
2022-11-29T21:57:51.192Z,9.49
2022-11-29T22:00:55.129Z,9.44
2022-11-29T22:03:58.872Z,9.21
2022-11-29T22:07:02.588Z,9.21
2022-11-29T22:10:13.102Z,9.36
2022-11-29T22:13:18.787Z,9.43
2022-11-29T22:16:22.579Z,9.35
2022-11-29T22:19:27.662Z,9.47
2022-11-29T22:22:31.567Z,9.43
2022-11-29T22:25:35.197Z,9.50
2022-11-29T22:28:40.578Z,9.40
2022-11-29T22:31:47.073Z,9.45
2022-11-29T22:34:50.778Z,9.37
2022-11-29T22:37:54.524Z,9.33
2022-11-29T22:41:02.018Z,9.26
2022-11-29T22:44:07.891Z,9.45
2022-11-29T22:47:14.206Z,9.44
2022-11-29T22:50:18.186Z,9.34
2022-11-29T22:53:22.028Z,9.38
2022-11-29T22:56:27.943Z,9.10
2022-11-29T22:59:33.057Z,9.16
2022-11-29T23:02:36.737Z,9.29
2022-11-29T23:05:40.538Z,9.30
2022-11-29T23:08:45.733Z,9.21
2022-11-29T23:11:53.296Z,9.36
2022-11-29T23:14:58.556Z,9.24
2022-11-29T23:18:02.404Z,9.25
2022-11-29T23:21:08.174Z,9.22
2022-11-29T23:24:12.037Z,9.28
2022-11-29T23:27:15.825Z,9.40
2022-11-29T23:30:21.044Z,9.39
2022-11-29T23:33:24.787Z,9.28
2022-11-29T23:36:28.573Z,9.49
2022-11-29T23:39:32.277Z,9.37
2022-11-29T23:42:35.954Z,9.46
2022-11-29T23:45:41.741Z,9.45
2022-11-29T23:48:45.865Z,9.42
2022-11-29T23:51:49.574Z,9.57
2022-11-29T23:54:53.297Z,9.57
2022-11-29T23:57:57.033Z,9.63
